sensor_id;sensor_type;location;lat;lon;timestamp;pressure;altitude;pressure_sealevel;temperature;humidity
64644;BME280;51056;50.330;7.914;2023-02-15T00:01:40;102218.69;;;2.12;87.28
64644;BME280;51056;50.330;7.914;2023-02-15T00:04:44;102216.09;;;2.14;87.48
64644;BME280;51056;50.330;7.914;2023-02-15T00:07:50;102215.28;;;2.16;86.97
64644;BME280;51056;50.330;7.914;2023-02-15T00:11:15;102214.41;;;2.16;87.31
64644;BME280;51056;50.330;7.914;2023-02-15T00:14:21;102209.16;;;2.06;87.19
64644;BME280;51056;50.330;7.914;2023-02-15T00:17:27;102210.00;;;2.04;87.31
64644;BME280;51056;50.330;7.914;2023-02-15T00:20:31;102210.03;;;2.07;87.46
64644;BME280;51056;50.330;7.914;2023-02-15T00:23:34;102206.59;;;2.09;87.11
64644;BME280;51056;50.330;7.914;2023-02-15T00:26:39;102209.19;;;2.09;87.19
64644;BME280;51056;50.330;7.914;2023-02-15T00:33:27;102197.13;;;2.05;87.01
64644;BME280;51056;50.330;7.914;2023-02-15T00:36:31;102198.84;;;2.05;87.27
64644;BME280;51056;50.330;7.914;2023-02-15T00:39:35;102192.81;;;2.06;86.99
64644;BME280;51056;50.330;7.914;2023-02-15T00:42:38;102191.97;;;2.05;86.77
64644;BME280;51056;50.330;7.914;2023-02-15T00:45:45;102189.31;;;1.99;87.08
64644;BME280;51056;50.330;7.914;2023-02-15T00:48:49;102187.59;;;1.98;87.51
64644;BME280;51056;50.330;7.914;2023-02-15T00:51:52;102184.13;;;1.98;87.44
64644;BME280;51056;50.330;7.914;2023-02-15T00:54:55;102183.28;;;2.00;86.79
64644;BME280;51056;50.330;7.914;2023-02-15T00:57:58;102188.50;;;2.02;86.65
64644;BME280;51056;50.330;7.914;2023-02-15T01:01:07;102184.13;;;1.98;86.91
64644;BME280;51056;50.330;7.914;2023-02-15T01:04:11;102184.13;;;1.96;86.49
64644;BME280;51056;50.330;7.914;2023-02-15T01:11:22;102186.53;;;1.81;87.39
64644;BME280;51056;50.330;7.914;2023-02-15T01:14:52;102183.16;;;1.88;87.26
64644;BME280;51056;50.330;7.914;2023-02-15T01:18:06;102192.63;;;1.86;87.20
64644;BME280;51056;50.330;7.914;2023-02-15T01:21:49;102194.38;;;1.89;87.21
64644;BME280;51056;50.330;7.914;2023-02-15T01:24:56;102184.94;;;1.92;86.80
64644;BME280;51056;50.330;7.914;2023-02-15T01:28:00;102184.09;;;1.92;86.42
64644;BME280;51056;50.330;7.914;2023-02-15T01:31:14;102177.16;;;1.88;86.65
64644;BME280;51056;50.330;7.914;2023-02-15T01:38:25;102167.56;;;1.73;87.17
64644;BME280;51056;50.330;7.914;2023-02-15T01:41:28;102164.94;;;1.71;86.65
64644;BME280;51056;50.330;7.914;2023-02-15T01:44:55;102158.88;;;1.65;87.07
64644;BME280;51056;50.330;7.914;2023-02-15T01:51:27;102169.06;;;1.54;86.64
64644;BME280;51056;50.330;7.914;2023-02-15T01:54:36;102167.50;;;1.68;87.35
64644;BME280;51056;50.330;7.914;2023-02-15T01:57:42;102170.88;;;1.62;87.57
64644;BME280;51056;50.330;7.914;2023-02-15T02:00:46;102164.06;;;1.68;87.40
64644;BME280;51056;50.330;7.914;2023-02-15T02:07:29;102164.13;;;1.74;86.70
64644;BME280;51056;50.330;7.914;2023-02-15T02:10:36;102169.28;;;1.74;86.69
64644;BME280;51056;50.330;7.914;2023-02-15T02:13:42;102162.38;;;1.70;86.77
64644;BME280;51056;50.330;7.914;2023-02-15T02:17:13;102161.53;;;1.74;86.56
64644;BME280;51056;50.330;7.914;2023-02-15T02:34:22;102139.16;;;1.71;86.35
64644;BME280;51056;50.330;7.914;2023-02-15T02:38:52;102139.16;;;1.71;86.32
64644;BME280;51056;50.330;7.914;2023-02-15T02:45:53;102126.22;;;1.63;86.53
64644;BME280;51056;50.330;7.914;2023-02-15T02:49:04;102134.72;;;1.56;86.73
64644;BME280;51056;50.330;7.914;2023-02-15T02:56:03;102133.88;;;1.59;85.93
64644;BME280;51056;50.330;7.914;2023-02-15T02:59:19;102125.31;;;1.60;85.74
64644;BME280;51056;50.330;7.914;2023-02-15T03:02:27;102125.25;;;1.54;86.10
64644;BME280;51056;50.330;7.914;2023-02-15T03:05:38;102115.75;;;1.51;85.07
64644;BME280;51056;50.330;7.914;2023-02-15T03:08:48;102117.50;;;1.55;85.13
64644;BME280;51056;50.330;7.914;2023-02-15T03:11:52;102117.16;;;1.22;85.97
64644;BME280;51056;50.330;7.914;2023-02-15T03:15:39;102108.56;;;1.23;86.82
64644;BME280;51056;50.330;7.914;2023-02-15T03:19:37;102108.78;;;1.43;86.10
64644;BME280;51056;50.330;7.914;2023-02-15T03:22:49;102104.53;;;1.45;85.95
64644;BME280;51056;50.330;7.914;2023-02-15T03:29:45;102090.84;;;1.52;85.45
64644;BME280;51056;50.330;7.914;2023-02-15T03:32:52;102098.66;;;1.56;85.58
64644;BME280;51056;50.330;7.914;2023-02-15T03:36:15;102093.50;;;1.56;85.37
64644;BME280;51056;50.330;7.914;2023-02-15T03:44:21;102073.69;;;1.54;85.42
64644;BME280;51056;50.330;7.914;2023-02-15T03:47:30;102080.53;;;1.52;85.22
64644;BME280;51056;50.330;7.914;2023-02-15T03:50:36;102083.13;;;1.53;85.61
64644;BME280;51056;50.330;7.914;2023-02-15T03:54:04;102077.13;;;1.54;85.50
64644;BME280;51056;50.330;7.914;2023-02-15T04:00:40;102081.34;;;1.49;85.46
64644;BME280;51056;50.330;7.914;2023-02-15T04:04:14;102083.09;;;1.52;85.37
64644;BME280;51056;50.330;7.914;2023-02-15T04:07:18;102080.53;;;1.50;85.58
64644;BME280;51056;50.330;7.914;2023-02-15T04:10:22;102083.00;;;1.43;85.79
64644;BME280;51056;50.330;7.914;2023-02-15T04:13:43;102080.50;;;1.49;85.86
64644;BME280;51056;50.330;7.914;2023-02-15T04:16:47;102080.53;;;1.50;85.18
64644;BME280;51056;50.330;7.914;2023-02-15T04:19:50;102085.66;;;1.49;85.28
64644;BME280;51056;50.330;7.914;2023-02-15T04:23:12;102087.38;;;1.48;85.24
64644;BME280;51056;50.330;7.914;2023-02-15T04:26:33;102083.03;;;1.44;85.07
64644;BME280;51056;50.330;7.914;2023-02-15T04:29:37;102090.78;;;1.46;85.35
64644;BME280;51056;50.330;7.914;2023-02-15T04:32:40;102085.59;;;1.41;85.15
64644;BME280;51056;50.330;7.914;2023-02-15T04:35:43;102084.78;;;1.48;84.99
64644;BME280;51056;50.330;7.914;2023-02-15T04:38:48;102089.88;;;1.42;84.57
64644;BME280;51056;50.330;7.914;2023-02-15T04:41:51;102083.91;;;1.45;84.73
64644;BME280;51056;50.330;7.914;2023-02-15T04:44:55;102083.88;;;1.42;84.80
64644;BME280;51056;50.330;7.914;2023-02-15T04:47:58;102077.84;;;1.43;84.79
64644;BME280;51056;50.330;7.914;2023-02-15T04:51:08;102078.75;;;1.45;84.92
64644;BME280;51056;50.330;7.914;2023-02-15T04:54:12;102071.94;;;1.51;84.59
64644;BME280;51056;50.330;7.914;2023-02-15T04:57:15;102073.56;;;1.42;84.86
64644;BME280;51056;50.330;7.914;2023-02-15T05:00:19;102072.69;;;1.41;85.43
64644;BME280;51056;50.330;7.914;2023-02-15T05:03:22;102064.19;;;1.48;84.96
64644;BME280;51056;50.330;7.914;2023-02-15T05:06:26;102068.47;;;1.49;84.66
64644;BME280;51056;50.330;7.914;2023-02-15T05:09:29;102065.91;;;1.51;84.77
64644;BME280;51056;50.330;7.914;2023-02-15T05:12:32;102057.31;;;1.52;84.60
64644;BME280;51056;50.330;7.914;2023-02-15T05:15:36;102061.63;;;1.53;84.38
64644;BME280;51056;50.330;7.914;2023-02-15T05:18:39;102052.00;;;1.32;85.09
64644;BME280;51056;50.330;7.914;2023-02-15T05:21:42;102057.13;;;1.32;84.75
64644;BME280;51056;50.330;7.914;2023-02-15T05:24:46;102059.75;;;1.35;84.82
64644;BME280;51056;50.330;7.914;2023-02-15T05:28:10;102062.22;;;1.26;84.49
64644;BME280;51056;50.330;7.914;2023-02-15T05:31:22;102065.72;;;1.31;84.66
64644;BME280;51056;50.330;7.914;2023-02-15T05:34:25;102059.78;;;1.38;84.51
64644;BME280;51056;50.330;7.914;2023-02-15T05:37:28;102056.22;;;1.27;84.47
64644;BME280;51056;50.330;7.914;2023-02-15T05:40:31;102060.56;;;1.34;84.65
64644;BME280;51056;50.330;7.914;2023-02-15T05:43:35;102052.00;;;1.33;84.51
64644;BME280;51056;50.330;7.914;2023-02-15T05:46:39;102054.59;;;1.36;84.52
64644;BME280;51056;50.330;7.914;2023-02-15T05:49:42;102059.81;;;1.43;84.41
64644;BME280;51056;50.330;7.914;2023-02-15T05:52:55;102061.59;;;1.48;84.28
64644;BME280;51056;50.330;7.914;2023-02-15T05:56:00;102059.06;;;1.51;83.92
64644;BME280;51056;50.330;7.914;2023-02-15T05:59:08;102069.16;;;1.33;84.39
64644;BME280;51056;50.330;7.914;2023-02-15T06:02:11;102070.13;;;1.41;84.61
64644;BME280;51056;50.330;7.914;2023-02-15T06:05:15;102062.38;;;1.41;84.17
64644;BME280;51056;50.330;7.914;2023-02-15T06:08:19;102064.09;;;1.41;84.21
64644;BME280;51056;50.330;7.914;2023-02-15T06:11:22;102064.06;;;1.37;84.31
64644;BME280;51056;50.330;7.914;2023-02-15T06:14:25;102062.31;;;1.35;84.51
64644;BME280;51056;50.330;7.914;2023-02-15T06:17:29;102074.28;;;1.28;84.94
64644;BME280;51056;50.330;7.914;2023-02-15T06:20:32;102079.50;;;1.34;84.41
64644;BME280;51056;50.330;7.914;2023-02-15T06:23:35;102079.53;;;1.39;84.47
64644;BME280;51056;50.330;7.914;2023-02-15T06:26:39;102071.78;;;1.36;84.26
64644;BME280;51056;50.330;7.914;2023-02-15T06:29:43;102080.25;;;1.27;84.94
64644;BME280;51056;50.330;7.914;2023-02-15T06:32:47;102070.03;;;1.32;84.70
64644;BME280;51056;50.330;7.914;2023-02-15T06:35:56;102065.75;;;1.37;84.38
64644;BME280;51056;50.330;7.914;2023-02-15T06:39:01;102070.97;;;1.43;84.35
64644;BME280;51056;50.330;7.914;2023-02-15T06:42:30;102066.56;;;1.30;84.81
64644;BME280;51056;50.330;7.914;2023-02-15T06:45:58;102073.47;;;1.31;85.25
64644;BME280;51056;50.330;7.914;2023-02-15T06:49:02;102066.63;;;1.34;85.23
64644;BME280;51056;50.330;7.914;2023-02-15T06:52:05;102077.84;;;1.41;84.54
64644;BME280;51056;50.330;7.914;2023-02-15T06:55:34;102065.88;;;1.48;84.20
64644;BME280;51056;50.330;7.914;2023-02-15T07:02:28;102077.09;;;1.53;84.55
64644;BME280;51056;50.330;7.914;2023-02-15T07:05:33;102070.16;;;1.46;84.83
64644;BME280;51056;50.330;7.914;2023-02-15T07:08:59;102065.91;;;1.51;85.47
64644;BME280;51056;50.330;7.914;2023-02-15T07:12:39;102072.88;;;1.56;86.29
64644;BME280;51056;50.330;7.914;2023-02-15T07:16:00;102071.16;;;1.60;85.04
64644;BME280;51056;50.330;7.914;2023-02-15T07:19:29;102073.78;;;1.65;84.41
64644;BME280;51056;50.330;7.914;2023-02-15T07:22:33;102069.56;;;1.73;84.40
64644;BME280;51056;50.330;7.914;2023-02-15T07:25:39;102077.28;;;1.71;84.57
64644;BME280;51056;50.330;7.914;2023-02-15T07:28:42;102080.66;;;1.66;85.25
64644;BME280;51056;50.330;7.914;2023-02-15T07:31:45;102081.56;;;1.71;84.95
64644;BME280;51056;50.330;7.914;2023-02-15T07:34:49;102074.59;;;1.60;84.70
64644;BME280;51056;50.330;7.914;2023-02-15T07:37:52;102077.25;;;1.67;84.64
64644;BME280;51056;50.330;7.914;2023-02-15T07:41:00;102072.19;;;1.76;84.56
64644;BME280;51056;50.330;7.914;2023-02-15T07:44:04;102069.63;;;1.79;84.38
64644;BME280;51056;50.330;7.914;2023-02-15T07:47:11;102073.91;;;1.81;84.21
64644;BME280;51056;50.330;7.914;2023-02-15T07:50:15;102079.06;;;1.81;83.94
64644;BME280;51056;50.330;7.914;2023-02-15T07:53:18;102072.22;;;1.85;84.20
64644;BME280;51056;50.330;7.914;2023-02-15T07:56:21;102073.09;;;1.82;83.97
64644;BME280;51056;50.330;7.914;2023-02-15T07:59:25;102067.88;;;1.78;84.15
64644;BME280;51056;50.330;7.914;2023-02-15T08:02:28;102062.38;;;1.41;85.06
64644;BME280;51056;50.330;7.914;2023-02-15T08:05:33;102065.13;;;1.56;85.84
64644;BME280;51056;50.330;7.914;2023-02-15T08:08:36;102058.44;;;1.81;84.96
64644;BME280;51056;50.330;7.914;2023-02-15T08:11:40;102054.19;;;1.88;84.92
64644;BME280;51056;50.330;7.914;2023-02-15T08:14:44;102055.06;;;1.85;85.28
64644;BME280;51056;50.330;7.914;2023-02-15T08:17:47;102050.88;;;1.98;84.85
64644;BME280;51056;50.330;7.914;2023-02-15T08:20:51;102041.41;;;2.00;84.82
64644;BME280;51056;50.330;7.914;2023-02-15T08:24:00;102044.00;;;2.03;83.91
64644;BME280;51056;50.330;7.914;2023-02-15T08:27:05;102044.88;;;2.05;84.39
64644;BME280;51056;50.330;7.914;2023-02-15T08:30:10;102033.75;;;2.13;83.88
64644;BME280;51056;50.330;7.914;2023-02-15T08:33:13;102030.16;;;1.91;85.21
64644;BME280;51056;50.330;7.914;2023-02-15T08:36:19;102026.84;;;2.08;84.66
64644;BME280;51056;50.330;7.914;2023-02-15T08:39:23;102024.34;;;2.19;84.53
64644;BME280;51056;50.330;7.914;2023-02-15T08:42:26;102019.22;;;2.27;84.24
64644;BME280;51056;50.330;7.914;2023-02-15T08:45:31;102011.50;;;2.36;84.11
64644;BME280;51056;50.330;7.914;2023-02-15T08:48:34;102010.59;;;2.23;83.79
64644;BME280;51056;50.330;7.914;2023-02-15T08:51:38;102004.56;;;2.21;84.92
64644;BME280;51056;50.330;7.914;2023-02-15T08:54:45;101996.06;;;2.45;84.28
64644;BME280;51056;50.330;7.914;2023-02-15T08:57:52;101994.97;;;1.99;85.49
64644;BME280;51056;50.330;7.914;2023-02-15T09:01:19;101996.03;;;2.36;84.68
64644;BME280;51056;50.330;7.914;2023-02-15T09:04:29;101995.25;;;2.51;84.09
64644;BME280;51056;50.330;7.914;2023-02-15T09:07:51;101997.84;;;2.52;83.70
64644;BME280;51056;50.330;7.914;2023-02-15T09:11:24;101990.16;;;2.71;83.52
64644;BME280;51056;50.330;7.914;2023-02-15T09:14:37;101978.16;;;2.74;83.67
64644;BME280;51056;50.330;7.914;2023-02-15T09:17:43;101981.59;;;2.79;82.97
64644;BME280;51056;50.330;7.914;2023-02-15T09:20:47;101984.19;;;2.78;82.87
64644;BME280;51056;50.330;7.914;2023-02-15T09:24:02;101979.03;;;2.90;82.95
64644;BME280;51056;50.330;7.914;2023-02-15T09:27:08;101982.47;;;2.83;83.01
64644;BME280;51056;50.330;7.914;2023-02-15T09:30:30;101980.78;;;2.97;82.68
64644;BME280;51056;50.330;7.914;2023-02-15T09:33:35;101981.63;;;3.02;82.24
64644;BME280;51056;50.330;7.914;2023-02-15T09:36:43;101988.53;;;2.99;81.90
64644;BME280;51056;50.330;7.914;2023-02-15T09:40:03;101988.53;;;2.96;81.90
64644;BME280;51056;50.330;7.914;2023-02-15T09:51:43;101991.16;;;3.22;81.38
64644;BME280;51056;50.330;7.914;2023-02-15T10:05:19;101993.78;;;3.42;81.57
64644;BME280;51056;50.330;7.914;2023-02-15T10:13:31;102008.44;;;3.55;81.30
64644;BME280;51056;50.330;7.914;2023-02-15T10:16:51;102005.00;;;3.58;80.75
64644;BME280;51056;50.330;7.914;2023-02-15T10:39:29;101988.63;;;3.68;80.89
64644;BME280;51056;50.330;7.914;2023-02-15T10:52:41;101988.56;;;4.00;80.56
64644;BME280;51056;50.330;7.914;2023-02-15T10:55:57;101984.25;;;3.94;80.10
64644;BME280;51056;50.330;7.914;2023-02-15T11:06:09;101976.38;;;4.39;79.37
64644;BME280;51056;50.330;7.914;2023-02-15T11:09:16;101969.56;;;4.19;78.28
64644;BME280;51056;50.330;7.914;2023-02-15T11:12:24;101969.63;;;3.81;81.36
64644;BME280;51056;50.330;7.914;2023-02-15T11:15:53;101974.78;;;3.87;80.74
64644;BME280;51056;50.330;7.914;2023-02-15T11:19:05;101971.28;;;4.14;80.16
64644;BME280;51056;50.330;7.914;2023-02-15T11:22:12;101962.50;;;4.55;79.81
64644;BME280;51056;50.330;7.914;2023-02-15T11:25:19;101953.13;;;4.27;79.36
64644;BME280;51056;50.330;7.914;2023-02-15T11:28:43;101940.88;;;4.67;78.41
64644;BME280;51056;50.330;7.914;2023-02-15T11:31:57;101940.81;;;4.79;77.75
64644;BME280;51056;50.330;7.914;2023-02-15T11:38:19;101926.78;;;5.11;77.96
64644;BME280;51056;50.330;7.914;2023-02-15T11:41:28;101923.28;;;5.18;76.99
64644;BME280;51056;50.330;7.914;2023-02-15T11:44:41;101916.38;;;5.17;77.46
64644;BME280;51056;50.330;7.914;2023-02-15T11:47:46;101918.28;;;4.89;77.96
64644;BME280;51056;50.330;7.914;2023-02-15T11:50:49;101918.47;;;4.63;79.51
64644;BME280;51056;50.330;7.914;2023-02-15T11:53:52;101911.56;;;4.53;79.77
64644;BME280;51056;50.330;7.914;2023-02-15T11:57:01;101903.72;;;4.73;79.54
64644;BME280;51056;50.330;7.914;2023-02-15T12:00:20;101899.19;;;5.02;79.00
64644;BME280;51056;50.330;7.914;2023-02-15T12:06:59;101901.03;;;4.86;78.86
64644;BME280;51056;50.330;7.914;2023-02-15T12:13:20;101886.09;;;5.19;78.38
64644;BME280;51056;50.330;7.914;2023-02-15T12:16:32;101868.75;;;5.27;79.17
64644;BME280;51056;50.330;7.914;2023-02-15T12:19:39;101874.84;;;5.23;78.38
64644;BME280;51056;50.330;7.914;2023-02-15T12:23:13;101874.13;;;5.04;78.37
64644;BME280;51056;50.330;7.914;2023-02-15T12:26:28;101861.78;;;5.31;78.60
64644;BME280;51056;50.330;7.914;2023-02-15T12:29:40;101865.94;;;5.50;77.07
64644;BME280;51056;50.330;7.914;2023-02-15T12:32:53;101855.03;;;5.11;77.70
64644;BME280;51056;50.330;7.914;2023-02-15T12:36:08;101847.03;;;5.38;77.35
64644;BME280;51056;50.330;7.914;2023-02-15T12:42:16;101846.81;;;5.59;77.51
64644;BME280;51056;50.330;7.914;2023-02-15T12:45:31;101839.88;;;5.61;76.88
64644;BME280;51056;50.330;7.914;2023-02-15T12:48:34;101828.50;;;5.74;76.49
64644;BME280;51056;50.330;7.914;2023-02-15T12:55:20;101826.47;;;5.99;76.98
64644;BME280;51056;50.330;7.914;2023-02-15T12:58:26;101824.69;;;6.04;76.40
64644;BME280;51056;50.330;7.914;2023-02-15T13:01:31;101827.19;;;6.14;76.15
64644;BME280;51056;50.330;7.914;2023-02-15T13:04:35;101816.66;;;6.21;75.09
64644;BME280;51056;50.330;7.914;2023-02-15T13:07:38;101813.41;;;6.07;75.57
64644;BME280;51056;50.330;7.914;2023-02-15T13:11:03;101811.63;;;6.11;75.87
64644;BME280;51056;50.330;7.914;2023-02-15T13:14:25;101813.22;;;6.22;75.75
64644;BME280;51056;50.330;7.914;2023-02-15T13:17:33;101804.63;;;6.16;75.49
64644;BME280;51056;50.330;7.914;2023-02-15T13:20:38;101807.44;;;5.99;76.34
64644;BME280;51056;50.330;7.914;2023-02-15T13:24:10;101799.38;;;6.19;76.35
64644;BME280;51056;50.330;7.914;2023-02-15T13:27:41;101794.91;;;6.30;75.54
64644;BME280;51056;50.330;7.914;2023-02-15T13:30:57;101793.34;;;6.20;75.04
64644;BME280;51056;50.330;7.914;2023-02-15T13:34:03;101791.50;;;6.25;74.88
64644;BME280;51056;50.330;7.914;2023-02-15T13:41:20;101775.72;;;6.40;75.04
64644;BME280;51056;50.330;7.914;2023-02-15T13:51:37;101761.03;;;6.38;75.68
64644;BME280;51056;50.330;7.914;2023-02-15T14:01:49;101747.41;;;6.23;75.01
64644;BME280;51056;50.330;7.914;2023-02-15T14:20:01;101733.38;;;6.34;75.64
64644;BME280;51056;50.330;7.914;2023-02-15T14:27:49;101726.47;;;6.33;75.36
64644;BME280;51056;50.330;7.914;2023-02-15T14:30:56;101736.72;;;6.42;75.19
64644;BME280;51056;50.330;7.914;2023-02-15T14:34:00;101725.63;;;6.32;75.62
64644;BME280;51056;50.330;7.914;2023-02-15T14:37:04;101724.56;;;6.44;75.58
64644;BME280;51056;50.330;7.914;2023-02-15T14:47:29;101721.13;;;6.42;75.27
64644;BME280;51056;50.330;7.914;2023-02-15T14:50:37;101723.66;;;6.46;75.86
64644;BME280;51056;50.330;7.914;2023-02-15T14:57:59;101711.31;;;6.59;74.82
64644;BME280;51056;50.330;7.914;2023-02-15T15:01:08;101712.81;;;6.74;74.47
64644;BME280;51056;50.330;7.914;2023-02-15T15:04:21;101714.31;;;6.86;74.44
64644;BME280;51056;50.330;7.914;2023-02-15T15:15:32;101717.84;;;6.82;73.98
64644;BME280;51056;50.330;7.914;2023-02-15T15:22:30;101722.31;;;6.77;74.24
64644;BME280;51056;50.330;7.914;2023-02-15T15:25:56;101717.22;;;6.70;73.85
64644;BME280;51056;50.330;7.914;2023-02-15T15:29:03;101721.47;;;6.73;73.90
64644;BME280;51056;50.330;7.914;2023-02-15T15:32:14;101711.34;;;6.58;74.27
64644;BME280;51056;50.330;7.914;2023-02-15T15:49:15;101713.25;;;6.46;75.19
64644;BME280;51056;50.330;7.914;2023-02-15T15:52:21;101712.47;;;6.41;75.63
64644;BME280;51056;50.330;7.914;2023-02-15T15:55:29;101717.69;;;6.40;75.10
64644;BME280;51056;50.330;7.914;2023-02-15T15:58:36;101718.78;;;6.26;75.46
64644;BME280;51056;50.330;7.914;2023-02-15T16:01:45;101718.91;;;6.17;76.09
64644;BME280;51056;50.330;7.914;2023-02-15T16:04:50;101722.41;;;6.15;75.82
64644;BME280;51056;50.330;7.914;2023-02-15T16:07:53;101720.75;;;6.09;76.16
64644;BME280;51056;50.330;7.914;2023-02-15T16:11:19;101718.19;;;6.06;75.77
64644;BME280;51056;50.330;7.914;2023-02-15T16:14:37;101714.91;;;5.95;75.94
64644;BME280;51056;50.330;7.914;2023-02-15T16:21:47;101718.59;;;5.75;77.19
64644;BME280;51056;50.330;7.914;2023-02-15T16:28:18;101730.78;;;5.70;77.19
64644;BME280;51056;50.330;7.914;2023-02-15T16:31:23;101729.19;;;5.60;77.32
64644;BME280;51056;50.330;7.914;2023-02-15T16:34:29;101725.88;;;5.47;77.24
64644;BME280;51056;50.330;7.914;2023-02-15T16:37:36;101720.94;;;5.27;77.90
64644;BME280;51056;50.330;7.914;2023-02-15T16:40:41;101726.22;;;5.18;78.31
64644;BME280;51056;50.330;7.914;2023-02-15T16:43:53;101730.66;;;5.05;78.75
64644;BME280;51056;50.330;7.914;2023-02-15T16:46:57;101735.94;;;4.96;78.84
64644;BME280;51056;50.330;7.914;2023-02-15T16:50:02;101744.00;;;4.62;80.58
64644;BME280;51056;50.330;7.914;2023-02-15T16:53:18;101746.47;;;4.75;80.34
64644;BME280;51056;50.330;7.914;2023-02-15T16:56:30;101743.97;;;4.67;80.00
64644;BME280;51056;50.330;7.914;2023-02-15T16:59:41;101751.75;;;4.62;80.08
64644;BME280;51056;50.330;7.914;2023-02-15T17:03:06;101752.69;;;4.55;79.75
64644;BME280;51056;50.330;7.914;2023-02-15T17:06:29;101755.38;;;4.45;80.17
64644;BME280;51056;50.330;7.914;2023-02-15T17:09:33;101750.25;;;4.38;80.53
64644;BME280;51056;50.330;7.914;2023-02-15T17:13:33;101757.19;;;4.27;80.94
64644;BME280;51056;50.330;7.914;2023-02-15T17:16:52;101768.50;;;4.14;80.94
64644;BME280;51056;50.330;7.914;2023-02-15T17:20:13;101773.75;;;4.06;81.05
64644;BME280;51056;50.330;7.914;2023-02-15T17:26:35;101766.88;;;3.94;81.25
64644;BME280;51056;50.330;7.914;2023-02-15T17:30:17;101768.66;;;3.92;81.32
64644;BME280;51056;50.330;7.914;2023-02-15T17:33:52;101769.53;;;3.87;81.51
64644;BME280;51056;50.330;7.914;2023-02-15T17:36:58;101765.25;;;3.78;81.39
64644;BME280;51056;50.330;7.914;2023-02-15T17:40:26;101772.16;;;3.73;81.86
64644;BME280;51056;50.330;7.914;2023-02-15T17:43:31;101774.81;;;3.64;81.07
64644;BME280;51056;50.330;7.914;2023-02-15T17:46:36;101767.91;;;3.61;81.82
64644;BME280;51056;50.330;7.914;2023-02-15T17:49:42;101777.41;;;3.58;82.27
64644;BME280;51056;50.330;7.914;2023-02-15T17:52:47;101773.94;;;3.56;82.35
64644;BME280;51056;50.330;7.914;2023-02-15T17:55:51;101767.91;;;3.54;82.44
64644;BME280;51056;50.330;7.914;2023-02-15T17:58:56;101779.19;;;3.42;82.16
64644;BME280;51056;50.330;7.914;2023-02-15T18:02:10;101783.47;;;3.37;82.37
64644;BME280;51056;50.330;7.914;2023-02-15T18:05:32;101778.34;;;3.28;82.65
64644;BME280;51056;50.330;7.914;2023-02-15T18:08:55;101781.78;;;3.31;82.27
64644;BME280;51056;50.330;7.914;2023-02-15T18:15:33;101780.06;;;3.21;81.49
64644;BME280;51056;50.330;7.914;2023-02-15T18:18:37;101780.97;;;3.08;81.20
64644;BME280;51056;50.330;7.914;2023-02-15T18:21:41;101786.97;;;3.14;80.77
64644;BME280;51056;50.330;7.914;2023-02-15T18:24:45;101791.28;;;3.11;80.44
64644;BME280;51056;50.330;7.914;2023-02-15T18:27:49;101785.25;;;3.06;80.38
64644;BME280;51056;50.330;7.914;2023-02-15T18:30:58;101788.69;;;3.03;80.35
64644;BME280;51056;50.330;7.914;2023-02-15T18:34:05;101778.38;;;2.98;81.35
64644;BME280;51056;50.330;7.914;2023-02-15T18:37:21;101784.41;;;2.97;81.16
64644;BME280;51056;50.330;7.914;2023-02-15T18:40:32;101782.69;;;2.93;81.55
64644;BME280;51056;50.330;7.914;2023-02-15T18:44:07;101780.13;;;2.87;81.38
64644;BME280;51056;50.330;7.914;2023-02-15T18:47:31;101787.88;;;2.78;81.72
64644;BME280;51056;50.330;7.914;2023-02-15T18:51:04;101781.81;;;2.67;82.44
64644;BME280;51056;50.330;7.914;2023-02-15T18:55:21;101791.31;;;2.59;82.50
64644;BME280;51056;50.330;7.914;2023-02-15T18:58:26;101798.16;;;2.47;82.52
64644;BME280;51056;50.330;7.914;2023-02-15T19:01:32;101799.00;;;2.39;82.81
64644;BME280;51056;50.330;7.914;2023-02-15T19:04:37;101803.31;;;2.40;82.76
64644;BME280;51056;50.330;7.914;2023-02-15T19:07:43;101807.59;;;2.42;83.35
64644;BME280;51056;50.330;7.914;2023-02-15T19:10:57;101811.91;;;2.45;82.75
64644;BME280;51056;50.330;7.914;2023-02-15T19:14:05;101812.75;;;2.39;82.16
64644;BME280;51056;50.330;7.914;2023-02-15T19:17:15;101811.91;;;2.28;82.16
64644;BME280;51056;50.330;7.914;2023-02-15T19:20:26;101813.56;;;2.17;83.00
64644;BME280;51056;50.330;7.914;2023-02-15T19:23:33;101820.47;;;2.15;82.84
64644;BME280;51056;50.330;7.914;2023-02-15T19:26:54;101817.00;;;2.09;83.03
64644;BME280;51056;50.330;7.914;2023-02-15T19:29:59;101809.22;;;2.03;83.33
64644;BME280;51056;50.330;7.914;2023-02-15T19:33:28;101819.53;;;1.97;83.15
64644;BME280;51056;50.330;7.914;2023-02-15T19:36:35;101810.94;;;1.92;83.42
64644;BME280;51056;50.330;7.914;2023-02-15T19:39:42;101813.47;;;1.86;83.31
64644;BME280;51056;50.330;7.914;2023-02-15T19:42:48;101819.47;;;1.83;83.66
64644;BME280;51056;50.330;7.914;2023-02-15T19:45:53;101822.06;;;1.82;83.65
64644;BME280;51056;50.330;7.914;2023-02-15T19:49:00;101822.06;;;1.79;83.64
64644;BME280;51056;50.330;7.914;2023-02-15T19:52:17;101811.72;;;1.76;84.00
64644;BME280;51056;50.330;7.914;2023-02-15T19:55:32;101824.66;;;1.82;84.08
64644;BME280;51056;50.330;7.914;2023-02-15T19:58:40;101820.34;;;1.84;83.85
64644;BME280;51056;50.330;7.914;2023-02-15T20:01:44;101824.63;;;1.83;83.78
64644;BME280;51056;50.330;7.914;2023-02-15T20:04:48;101816.91;;;1.82;84.04
64644;BME280;51056;50.330;7.914;2023-02-15T20:08:01;101822.91;;;1.79;84.09
64644;BME280;51056;50.330;7.914;2023-02-15T20:11:10;101817.75;;;1.79;84.16
64644;BME280;51056;50.330;7.914;2023-02-15T20:14:14;101816.91;;;1.83;84.31
64644;BME280;51056;50.330;7.914;2023-02-15T20:17:17;101824.66;;;1.90;84.35
64644;BME280;51056;50.330;7.914;2023-02-15T20:20:22;101828.09;;;1.87;84.21
64644;BME280;51056;50.330;7.914;2023-02-15T20:23:34;101830.66;;;1.87;84.45
64644;BME280;51056;50.330;7.914;2023-02-15T20:26:38;101828.09;;;1.85;84.62
64644;BME280;51056;50.330;7.914;2023-02-15T20:29:48;101834.13;;;1.89;84.43
64644;BME280;51056;50.330;7.914;2023-02-15T20:32:52;101834.97;;;1.88;84.25